createdAt,value
2019-03-12T00:01:17.195Z,75.75
2019-03-12T00:03:46.750Z,75.74
2019-03-12T00:06:16.357Z,75.67
2019-03-12T00:08:45.905Z,75.58
2019-03-12T00:11:15.454Z,75.44
2019-03-12T00:13:45.012Z,75.45
2019-03-12T00:16:14.542Z,75.33
2019-03-12T00:18:44.096Z,75.38
2019-03-12T00:21:13.645Z,75.39
2019-03-12T00:23:43.245Z,75.23
2019-03-12T00:26:12.852Z,75.14
2019-03-12T00:28:42.403Z,75.05
2019-03-12T00:31:13.177Z,75.06
2019-03-12T00:33:42.725Z,75.11
2019-03-12T00:36:12.361Z,74.94
2019-03-12T00:38:41.913Z,74.97
2019-03-12T00:41:11.462Z,74.94
2019-03-12T00:43:41.010Z,74.82
2019-03-12T00:46:10.560Z,74.74
2019-03-12T00:48:40.111Z,74.80
2019-03-12T00:51:09.689Z,74.84
2019-03-12T00:53:39.264Z,74.91
2019-03-12T00:56:08.818Z,74.89
2019-03-12T00:58:38.360Z,74.85
2019-03-12T01:01:07.972Z,74.86
2019-03-12T01:03:37.537Z,74.83
2019-03-12T01:06:07.151Z,74.92
2019-03-12T01:08:36.724Z,75.00
2019-03-12T01:11:06.284Z,74.92
2019-03-12T01:13:35.893Z,74.96
2019-03-12T01:16:05.523Z,75.01
2019-03-12T01:18:35.074Z,74.97
2019-03-12T01:21:04.683Z,75.03
2019-03-12T01:23:34.267Z,74.98
2019-03-12T01:26:03.857Z,75.15
2019-03-12T01:28:33.393Z,75.18
2019-03-12T01:31:02.951Z,75.21
2019-03-12T01:33:32.506Z,75.17
2019-03-12T01:36:02.138Z,75.30
2019-03-12T01:38:31.652Z,75.49
2019-03-12T01:41:01.270Z,75.70
2019-03-12T01:43:30.800Z,75.78
2019-03-12T01:46:00.395Z,75.71
2019-03-12T01:48:29.921Z,75.77
2019-03-12T01:50:59.527Z,75.77
2019-03-12T01:53:29.076Z,75.83
2019-03-12T01:55:58.681Z,75.78
2019-03-12T01:58:28.214Z,75.92
2019-03-12T02:00:57.791Z,76.00
2019-03-12T02:03:27.327Z,76.10
2019-03-12T02:05:56.880Z,76.09
2019-03-12T02:08:26.497Z,76.03
2019-03-12T02:10:56.014Z,75.96
2019-03-12T02:13:25.620Z,76.09
2019-03-12T02:15:55.168Z,76.01
2019-03-12T02:18:25.136Z,75.98
2019-03-12T02:20:54.709Z,75.97
2019-03-12T02:23:24.231Z,76.05
2019-03-12T02:25:53.829Z,76.19
2019-03-12T02:28:23.338Z,76.13
2019-03-12T02:30:52.945Z,76.10
2019-03-12T02:33:22.478Z,76.01
2019-03-12T02:35:52.062Z,75.99
2019-03-12T02:38:21.607Z,75.97
2019-03-12T02:40:51.519Z,75.94
2019-03-12T02:43:21.029Z,75.88
2019-03-12T02:45:50.570Z,75.99
2019-03-12T02:48:20.149Z,76.17
2019-03-12T02:50:53.177Z,76.10
2019-03-12T02:53:22.731Z,76.02
2019-03-12T02:55:52.306Z,76.10
2019-03-12T02:58:21.905Z,76.16
2019-03-12T03:00:51.526Z,76.19
2019-03-12T03:03:21.049Z,76.21
2019-03-12T03:05:58.364Z,76.25
2019-03-12T03:08:29.595Z,76.41
2019-03-12T03:10:59.137Z,76.35
2019-03-12T03:13:28.760Z,76.34
2019-03-12T03:15:58.304Z,76.32
2019-03-12T03:18:27.850Z,76.41
2019-03-12T03:20:57.369Z,76.51
2019-03-12T03:23:27.186Z,76.61
2019-03-12T03:25:56.750Z,76.74
2019-03-12T03:28:26.704Z,76.91
2019-03-12T03:30:57.806Z,77.05
2019-03-12T03:33:28.201Z,76.90
2019-03-12T03:35:57.792Z,76.85
2019-03-12T03:38:27.342Z,76.77
2019-03-12T03:40:56.965Z,76.83
2019-03-12T03:43:26.514Z,76.88
2019-03-12T03:45:56.056Z,76.65
2019-03-12T03:48:25.588Z,76.50
2019-03-12T03:50:55.127Z,76.45
2019-03-12T03:53:24.744Z,76.46
2019-03-12T03:55:54.256Z,76.55
2019-03-12T03:58:23.779Z,76.42
2019-03-12T04:00:53.375Z,76.27
2019-03-12T04:03:22.940Z,76.22
2019-03-12T04:05:52.511Z,76.25
2019-03-12T04:08:22.036Z,76.26
2019-03-12T04:10:51.565Z,76.15
2019-03-12T04:13:21.287Z,75.92
2019-03-12T04:15:51.786Z,75.81
2019-03-12T04:18:21.322Z,75.58
2019-03-12T04:20:50.868Z,75.52
2019-03-12T04:23:20.534Z,75.38
2019-03-12T04:25:50.075Z,75.23
2019-03-12T04:28:19.667Z,75.10
2019-03-12T04:30:49.204Z,74.92
2019-03-12T04:34:00.609Z,74.92
2019-03-12T04:36:30.153Z,74.97
2019-03-12T04:38:59.984Z,74.73
2019-03-12T04:41:29.604Z,74.57
2019-03-12T04:43:59.160Z,74.58
2019-03-12T04:46:29.019Z,74.66
2019-03-12T04:48:58.610Z,74.58
2019-03-12T04:51:28.124Z,74.39
2019-03-12T04:53:57.656Z,74.33
2019-03-12T04:56:27.212Z,74.23
2019-03-12T04:58:56.742Z,74.04
2019-03-12T05:01:26.284Z,73.88
2019-03-12T05:03:55.821Z,73.91
2019-03-12T05:06:25.375Z,73.99
2019-03-12T05:08:54.917Z,74.03
2019-03-12T05:11:24.463Z,73.96
2019-03-12T05:14:29.062Z,73.91
2019-03-12T05:17:03.166Z,73.95
2019-03-12T05:19:32.715Z,73.74
2019-03-12T05:22:02.251Z,73.77
2019-03-12T05:24:31.809Z,73.55
2019-03-12T05:27:01.327Z,73.58
2019-03-12T05:29:30.900Z,73.47
2019-03-12T05:32:00.464Z,73.55
2019-03-12T05:34:29.990Z,73.67
2019-03-12T05:36:59.530Z,73.61
2019-03-12T05:39:29.084Z,73.53
2019-03-12T05:41:58.635Z,73.40
2019-03-12T05:44:28.245Z,73.49
2019-03-12T05:46:57.795Z,73.50
2019-03-12T05:49:27.321Z,73.55
2019-03-12T05:51:56.883Z,73.55
2019-03-12T05:54:26.416Z,73.65
2019-03-12T05:56:55.984Z,73.66
2019-03-12T05:59:25.529Z,73.72
2019-03-12T06:01:55.093Z,73.91
2019-03-12T06:04:24.620Z,73.80
2019-03-12T06:06:54.292Z,73.69
2019-03-12T06:09:30.142Z,73.93
2019-03-12T06:11:55.091Z,73.80
2019-03-12T06:14:24.621Z,73.88
2019-03-12T06:16:54.180Z,73.96
2019-03-12T06:19:23.730Z,73.83
2019-03-12T06:21:53.278Z,73.95
2019-03-12T06:24:22.804Z,73.95
2019-03-12T06:26:52.356Z,73.92
2019-03-12T06:29:21.908Z,74.09
2019-03-12T06:31:53.174Z,74.03
2019-03-12T06:34:24.376Z,74.31
2019-03-12T06:36:55.573Z,74.34
2019-03-12T06:39:35.568Z,74.56
2019-03-12T06:42:15.866Z,74.55
2019-03-12T06:44:59.088Z,74.59
2019-03-12T06:47:34.068Z,74.56
2019-03-12T06:50:06.193Z,74.68
2019-03-12T06:52:35.507Z,74.80
2019-03-12T06:55:17.224Z,74.65
2019-03-12T06:58:23.092Z,74.53
2019-03-12T07:00:57.236Z,74.57
2019-03-12T07:03:28.471Z,74.62
2019-03-12T07:05:59.674Z,74.59
2019-03-12T07:08:30.878Z,74.58
2019-03-12T07:11:02.058Z,74.40
2019-03-12T07:13:33.214Z,74.27
2019-03-12T07:16:07.030Z,74.21
2019-03-12T07:18:42.083Z,74.00
2019-03-12T07:21:26.203Z,73.90
2019-03-12T07:24:15.465Z,73.37
2019-03-12T07:26:52.376Z,73.34
2019-03-12T07:29:23.604Z,72.77
2019-03-12T07:32:09.926Z,72.55
2019-03-12T07:34:53.003Z,72.36
2019-03-12T07:37:24.741Z,72.22
2019-03-12T07:39:58.222Z,71.66
2019-03-12T07:42:29.476Z,71.89
2019-03-12T07:45:06.349Z,71.44
2019-03-12T07:47:37.569Z,71.42
2019-03-12T07:50:13.510Z,71.37
2019-03-12T07:52:42.843Z,71.26
2019-03-12T07:55:14.056Z,71.36
2019-03-12T07:57:43.360Z,71.03
2019-03-12T08:00:17.874Z,70.88
2019-03-12T08:02:51.796Z,71.22
2019-03-12T08:05:28.778Z,70.65
2019-03-12T08:08:00.771Z,70.04
2019-03-12T08:10:33.819Z,69.82
2019-03-12T08:13:10.593Z,69.52
2019-03-12T08:15:57.659Z,69.61
2019-03-12T08:18:31.596Z,68.79
2019-03-12T08:21:05.273Z,68.81
2019-03-12T08:23:52.379Z,68.16
2019-03-12T08:26:29.316Z,68.37
2019-03-12T08:29:16.683Z,68.26
2019-03-12T08:31:47.851Z,67.63
2019-03-12T08:34:21.438Z,67.25
2019-03-12T08:37:04.461Z,67.03
2019-03-12T08:39:44.149Z,67.13
2019-03-12T08:42:15.415Z,67.05
2019-03-12T08:44:52.475Z,66.90
2019-03-12T08:47:27.509Z,66.84
2019-03-12T08:49:58.914Z,66.70
2019-03-12T08:52:30.073Z,67.11
2019-03-12T08:55:07.369Z,67.25
2019-03-12T08:57:38.537Z,67.78
2019-03-12T09:00:25.546Z,67.00
2019-03-12T09:03:02.265Z,67.10
2019-03-12T09:05:48.926Z,67.54
2019-03-12T09:08:25.710Z,67.47
2019-03-12T09:10:57.989Z,67.33
2019-03-12T09:13:43.664Z,66.49
2019-03-12T09:16:17.469Z,66.23
2019-03-12T09:19:06.555Z,66.77
2019-03-12T09:21:54.145Z,66.41
2019-03-12T09:24:25.342Z,65.91
2019-03-12T09:26:57.195Z,65.20
2019-03-12T09:29:34.116Z,65.19
2019-03-12T09:32:05.320Z,65.64
2019-03-12T09:34:36.594Z,65.38
2019-03-12T11:16:00.536Z,57.87
2019-03-12T11:23:13.239Z,57.45
2019-03-12T11:29:50.145Z,55.40
2019-03-12T11:32:55.649Z,53.52
2019-03-12T11:35:44.532Z,54.18
2019-03-12T11:39:09.179Z,53.88
2019-03-12T11:42:54.307Z,53.15
2019-03-12T11:53:17.404Z,51.91
2019-03-12T11:56:26.304Z,52.04
2019-03-12T11:59:14.460Z,50.84
2019-03-12T12:02:05.969Z,49.26
2019-03-12T12:04:51.883Z,49.98
2019-03-12T12:07:40.768Z,50.56
2019-03-12T12:10:29.667Z,50.18
2019-03-12T12:13:54.506Z,49.15
2019-03-12T12:16:43.386Z,48.64
2019-03-12T12:19:32.396Z,49.61
2019-03-12T12:22:38.704Z,50.24
2019-03-12T12:25:45.621Z,50.52
2019-03-12T12:36:13.063Z,49.02
2019-03-12T12:39:38.227Z,48.18
2019-03-12T12:42:26.498Z,48.13
2019-03-12T12:49:22.222Z,48.44
2019-03-12T12:52:28.985Z,46.71
2019-03-12T12:55:05.509Z,47.14
2019-03-12T12:57:35.447Z,45.24
2019-03-12T13:00:13.002Z,45.30
2019-03-12T13:02:42.657Z,45.98
2019-03-12T13:05:14.690Z,45.76
2019-03-12T13:07:46.599Z,46.67
2019-03-12T13:10:26.932Z,47.26
2019-03-12T13:12:58.759Z,46.54
2019-03-12T13:15:28.632Z,47.18
2019-03-12T13:17:58.722Z,46.80
2019-03-12T13:20:28.271Z,48.05
2019-03-12T13:22:58.178Z,48.87
2019-03-12T13:25:27.729Z,47.88
2019-03-12T13:27:58.884Z,47.83
2019-03-12T13:30:28.448Z,48.63
2019-03-12T13:33:03.264Z,47.29
2019-03-12T13:35:33.466Z,47.06
2019-03-12T13:38:03.055Z,47.93
2019-03-12T13:40:32.827Z,46.80
2019-03-12T13:43:02.434Z,47.77
2019-03-12T13:45:33.302Z,47.84
2019-03-12T13:48:03.357Z,47.35
2019-03-12T13:50:33.229Z,48.36
2019-03-12T13:53:02.921Z,48.64
2019-03-12T13:55:32.566Z,47.90
2019-03-12T13:58:02.103Z,47.60
2019-03-12T14:00:33.215Z,47.44
2019-03-12T14:03:03.362Z,46.88
2019-03-12T14:05:32.954Z,47.45
2019-03-12T14:08:02.667Z,46.89
2019-03-12T14:10:32.598Z,46.15
2019-03-12T14:13:02.251Z,47.33
2019-03-12T14:15:37.559Z,47.69
2019-03-12T14:18:07.368Z,47.47
2019-03-12T14:20:43.094Z,47.86
2019-03-12T14:23:37.534Z,47.43
2019-03-12T14:26:07.099Z,46.48
2019-03-12T14:28:36.659Z,46.67
2019-03-12T14:31:06.545Z,46.29
2019-03-12T14:33:39.389Z,46.63
2019-03-12T14:36:09.037Z,46.59
2019-03-12T14:38:38.582Z,46.50
2019-03-12T14:41:08.141Z,45.86
2019-03-12T14:43:37.695Z,45.68
2019-03-12T14:46:07.305Z,45.07
2019-03-12T14:48:52.380Z,45.19
2019-03-12T14:51:32.250Z,45.24
2019-03-12T14:54:13.098Z,45.52
2019-03-12T14:56:42.884Z,46.90
2019-03-12T14:59:12.494Z,46.25
2019-03-12T15:01:42.275Z,46.34
2019-03-12T15:04:14.783Z,48.12
2019-03-12T15:06:43.079Z,48.45
2019-03-12T15:09:14.767Z,47.74
2019-03-12T15:11:44.377Z,48.36
2019-03-12T15:14:14.360Z,47.68
2019-03-12T15:16:44.157Z,47.89
2019-03-12T15:19:13.729Z,47.79
2019-03-12T15:21:43.317Z,47.48
2019-03-12T15:24:12.884Z,47.77
2019-03-12T15:26:42.898Z,48.41
2019-03-12T15:29:12.537Z,48.40
2019-03-12T15:31:42.068Z,48.06
2019-03-12T15:34:11.890Z,47.90
2019-03-12T15:36:41.445Z,47.57
2019-03-12T15:39:11.581Z,47.81
2019-03-12T15:41:41.123Z,47.42
2019-03-12T15:44:10.732Z,48.10
2019-03-12T15:46:40.330Z,47.32
2019-03-12T15:49:10.625Z,47.80
2019-03-12T15:51:40.278Z,47.69
2019-03-12T15:54:10.033Z,47.42
2019-03-12T15:56:39.626Z,46.48
2019-03-12T15:59:09.161Z,46.52
2019-03-12T16:01:38.853Z,47.01
2019-03-12T16:04:08.389Z,46.96
2019-03-12T16:06:37.957Z,46.74
2019-03-12T16:09:08.492Z,47.05
2019-03-12T16:11:38.086Z,47.15
2019-03-12T16:14:07.672Z,46.78
2019-03-12T16:19:43.488Z,47.09
2019-03-12T16:34:40.334Z,45.59
2019-03-12T16:45:02.582Z,45.49
2019-03-12T17:15:28.901Z,45.26
2019-03-12T17:18:03.326Z,44.98
2019-03-12T17:20:32.949Z,45.11
2019-03-12T17:23:02.584Z,44.66
2019-03-12T17:25:32.133Z,44.92
2019-03-12T17:28:01.746Z,44.70
2019-03-12T17:30:31.307Z,44.83
2019-03-12T17:33:00.809Z,44.83
2019-03-12T17:35:39.736Z,44.18
2019-03-12T17:38:09.417Z,45.25
2019-03-12T17:40:39.555Z,44.62
2019-03-12T17:43:09.122Z,43.91
2019-03-12T17:45:38.711Z,44.55
2019-03-12T17:48:08.242Z,43.99
2019-03-12T17:50:37.977Z,43.64
2019-03-12T17:53:07.797Z,43.58
2019-03-12T17:55:37.387Z,42.90
2019-03-12T17:58:07.156Z,43.17
2019-03-12T18:00:38.388Z,43.55
2019-03-12T18:03:07.989Z,43.73
2019-03-12T18:05:37.564Z,43.56
2019-03-12T18:08:07.071Z,43.92
2019-03-12T18:10:36.642Z,43.83
2019-03-12T18:13:06.136Z,43.47
2019-03-12T18:15:35.733Z,43.97
2019-03-12T18:18:05.361Z,43.68
2019-03-12T18:20:34.959Z,43.48
2019-03-12T18:23:04.522Z,42.83
2019-03-12T18:25:40.795Z,43.04
2019-03-12T18:28:10.797Z,42.53
2019-03-12T18:30:40.619Z,41.61
2019-03-12T18:33:10.423Z,41.93
2019-03-12T18:35:40.091Z,42.12
2019-03-12T18:38:09.647Z,42.08
2019-03-12T18:40:39.241Z,41.33
2019-03-12T18:43:08.798Z,41.61
2019-03-12T18:45:41.198Z,41.22
2019-03-12T18:48:10.776Z,40.76
2019-03-12T18:50:40.375Z,41.35
2019-03-12T18:53:09.915Z,40.87
2019-03-12T18:55:44.776Z,39.98
2019-03-12T18:58:14.371Z,40.56
2019-03-12T19:00:48.985Z,40.69
2019-03-12T19:03:18.876Z,40.43
2019-03-12T19:05:48.532Z,40.96
2019-03-12T19:08:18.052Z,41.33
2019-03-12T19:10:47.692Z,40.66
2019-03-12T19:13:17.498Z,41.07
2019-03-12T19:15:47.413Z,41.16
2019-03-12T19:18:17.030Z,40.93
2019-03-12T19:20:50.306Z,41.34
2019-03-12T19:23:21.828Z,41.03
2019-03-12T19:25:51.517Z,40.48
2019-03-12T19:28:21.168Z,41.29
2019-03-12T19:30:52.693Z,41.24
2019-03-12T19:33:24.789Z,41.06
2019-03-12T19:35:54.662Z,40.57
2019-03-12T19:38:24.219Z,40.66
2019-03-12T19:40:57.127Z,40.68
2019-03-12T19:43:26.736Z,40.89
2019-03-12T19:45:56.276Z,40.18
2019-03-12T19:48:25.933Z,39.99
2019-03-12T19:50:56.187Z,42.46
2019-03-12T19:53:25.906Z,45.77
2019-03-12T19:56:08.146Z,46.48
2019-03-12T19:58:37.762Z,48.07
2019-03-12T20:01:07.497Z,48.37
2019-03-12T20:03:37.402Z,49.97
2019-03-12T20:06:07.006Z,50.80
2019-03-12T20:08:36.577Z,51.57
2019-03-12T20:11:42.413Z,51.88
2019-03-12T20:14:28.426Z,51.87
2019-03-12T20:17:34.118Z,52.62
2019-03-12T20:20:53.309Z,53.87
2019-03-12T20:24:03.579Z,53.95
2019-03-12T20:27:00.155Z,54.15
2019-03-12T20:29:51.001Z,54.17
2019-03-12T20:33:08.712Z,55.34
2019-03-12T20:36:14.246Z,56.40
2019-03-12T20:39:15.172Z,56.29
2019-03-12T20:42:20.550Z,57.04
2019-03-12T20:45:28.973Z,58.69
2019-03-12T20:48:27.222Z,57.77
2019-03-12T20:51:23.861Z,58.10
2019-03-12T20:54:33.707Z,57.53
2019-03-12T20:57:57.205Z,57.68
2019-03-12T21:00:33.182Z,57.61
2019-03-12T21:03:24.842Z,57.83
2019-03-12T21:06:03.808Z,57.30
2019-03-12T21:09:06.391Z,57.08
2019-03-12T21:12:19.829Z,56.31
2019-03-12T21:15:28.656Z,55.94
2019-03-12T21:18:23.899Z,55.80
2019-03-12T21:21:32.623Z,55.46
2019-03-12T21:24:18.603Z,55.41
2019-03-12T21:26:52.872Z,54.75
2019-03-12T21:29:33.166Z,54.43
2019-03-12T21:32:03.276Z,54.46
2019-03-12T21:34:33.348Z,54.38
2019-03-12T21:37:03.600Z,54.70
2019-03-12T21:39:33.875Z,56.06
2019-03-12T21:42:03.855Z,58.17
2019-03-12T21:44:36.780Z,61.66
2019-03-12T21:47:06.973Z,67.38
2019-03-12T21:49:37.033Z,70.72
2019-03-12T21:52:07.616Z,72.19
2019-03-12T21:54:40.749Z,72.90
2019-03-12T21:57:10.885Z,74.19
2019-03-12T21:59:40.927Z,73.51
2019-03-12T22:02:11.030Z,74.67
2019-03-12T22:04:41.123Z,75.97
2019-03-12T22:07:10.948Z,76.02
2019-03-12T22:09:40.740Z,76.25
2019-03-12T22:12:10.936Z,76.14
2019-03-12T22:14:40.654Z,76.18
2019-03-12T22:17:11.161Z,76.12
2019-03-12T22:19:41.323Z,76.55
2019-03-12T22:22:13.062Z,77.13
2019-03-12T22:24:43.059Z,77.61
2019-03-12T22:27:13.022Z,77.79
2019-03-12T22:29:43.107Z,78.37
2019-03-12T22:32:13.636Z,79.22
2019-03-12T22:34:45.508Z,79.21
2019-03-12T22:37:15.964Z,79.12
2019-03-12T22:39:45.953Z,79.02
2019-03-12T22:42:16.271Z,78.41
2019-03-12T22:44:46.964Z,77.96
2019-03-12T22:47:17.304Z,78.29
2019-03-12T22:49:47.821Z,78.14
2019-03-12T22:52:18.359Z,77.67
2019-03-12T22:54:48.574Z,77.77
2019-03-12T22:57:18.103Z,77.44
2019-03-12T22:59:49.009Z,76.95
2019-03-12T23:02:19.117Z,77.11
2019-03-12T23:04:51.176Z,77.66
2019-03-12T23:07:22.345Z,77.61
2019-03-12T23:09:53.069Z,77.32
2019-03-12T23:12:23.910Z,77.21
2019-03-12T23:14:54.572Z,77.01
2019-03-12T23:17:24.796Z,76.56
2019-03-12T23:19:55.028Z,76.55
2019-03-12T23:22:25.118Z,75.66
2019-03-12T23:24:55.164Z,75.49
2019-03-12T23:27:25.464Z,74.99
2019-03-12T23:29:55.902Z,74.82
2019-03-12T23:32:25.976Z,74.65
2019-03-12T23:34:55.966Z,74.73
2019-03-12T23:37:26.262Z,74.58
2019-03-12T23:39:56.804Z,74.73
2019-03-12T23:42:27.009Z,74.46
2019-03-12T23:44:57.139Z,74.79
2019-03-12T23:47:28.595Z,74.34
2019-03-12T23:50:00.492Z,74.09
2019-03-12T23:52:32.541Z,74.28
2019-03-12T23:55:03.321Z,74.19
2019-03-12T23:57:35.175Z,74.14
